Airfield :
LOGIN :

Register | Disclaimer

   EN    FR    IT 

 










Legend :    VFR   Marginal VFR   IFR   Intensive IFR   Very Intensive IFR
Visi :
Ceiling :
>= 8 km
>= 3000ft
5 to 8 km
1000 to 3000 ft
1500m to 5 km
500 to 1000 ft
800 to 1500m
200 to 500 ft
< 800m
< 200 ft
Symbols :   Thunderstorms  Fog  Heavy snow  Heavy precipitations  Wind > 20 kt
SIGMETs :     Misc.  Thunderstorms  Icing  Turbulence  Mountain Waves  Volcanic Ashes






- Airport Elevation : 242 ft
- IATA code : DUB


EIDW - Dublin

CURRENT METAR :
  • 191830Z 22013G24KT 170V250 8000 -RA SCT010 BKN020 10/07 Q1004 NOSIG

EXPIRED METARs :
  • 191800Z 22015G25KT 170V260 8000 -RA BKN010 BKN030 09/08 Q1004 NOSIG
  • 191730Z 22013G23KT 190V250 8000 -RA BKN012 BKN030 10/08 Q1004 NOSIG
  • 191700Z 22012G22KT 190V260 8000 -RA BKN012 BKN030 10/08 Q1005 NOSIG
  • 191630Z 22012KT 190V250 8000 -RA BKN010 BKN030 09/08 Q1005 NOSIG
  • 191600Z 22012KT 180V270 6000 -RA BKN010 BKN030 09/08 Q1005 NOSIG

TAF TAF EIDW
Valid from the 19 at 18:00 until the 20 at 18:00 UTC


191700Z 1918/2018 22014KT 9999 -RA SCT015 BKN030
TEMPO 1918/1924 8000 BKN010
TEMPO 1918/1922 22018G28KT
TEMPO 2000/2006 5000 RA BKN008
BECMG 2005/2007 28014G28KT
BECMG 2010/2012 26020G30KT



MET'MAP, your aeronautical weather chart ! - Copyright ORBIFLY December 2007 - Disclaimer

ORBIFLY MET'MAP TEAM :

Programming & Development : Alexandra Zaïnal
Concept & original design : Baudouin d'Aumeries
Assistance for programming : Marc-Olivier Méhu
Technical & hardware support : Manuel Goepfert

Contact : metmap@orbifly.com




SOURCES & CREDITS :

   NOAA